^^
Station Historical Data
Daily Summary for January 7, 2017 Units:  Metric    English   Both
« Previous Day
Next Day »
Daily Weekly Monthly Yearly Custom
  High: Low: Average:
Temperature: 34 °C 19.3 °C 25.4 °C
Dew Point: 10.6 °C -3.6 °C 6.8 °C
Humidity: 55% 9% 35%
Wind Speed: 32km/h 0km/h 16.6km/h
Wind Gust: 37km/h - -
Wind- - SSW
Pressure: 1011.7 hPa 1007.7 hPa -
Precipitation: 0 mm    
Historical Graphs
 
 
Tabular Data for January 7, 2017
Time Temperature Dew Point Pressure Wind Wind Speed Wind Gust Humidity Rainfall Rate (Hourly) solar Conditions
01:17 22.5 °C 10.6 °C 1009 hPa SSW 19.5 km/h 25.7 km/h 47% 0 mm 0.0 W/m2
01:27 22.2 °C 10.4 °C 1009 hPa SSW 24.1 km/h 24.1 km/h 47% 0 mm 0.0 W/m2
01:37 22.1 °C 10.6 °C 1009 hPa SSW 17.7 km/h 25.7 km/h 48% 0 mm 0.0 W/m2
01:52 21.8 °C 10 °C 1009 hPa SSW 20.9 km/h 29 km/h 47% 0 mm 0.0 W/m2
02:02 21.7 °C 10.2 °C 1009 hPa SSW 22.7 km/h 27.4 km/h 48% 0 mm 0.0 W/m2
02:12 21.5 °C 10 °C 1009 hPa SSW 22.7 km/h 24.1 km/h 48% 0 mm 0.0 W/m2
02:42 21.1 °C 10 °C 1008.7 hPa SSW 14.3 km/h 25.7 km/h 49% 0 mm 0.0 W/m2
02:58 20.8 °C 9.7 °C 1008.7 hPa SW 13 km/h 19.3 km/h 49% 0 mm 0.0 W/m2
03:07 20.5 °C 9.7 °C 1008.7 hPa SW 9.7 km/h 19.3 km/h 50% 0 mm 0.0 W/m2
03:33 20.3 °C 9.8 °C 1008.7 hPa SW 14.3 km/h 17.7 km/h 51% 0 mm 0.0 W/m2
03:38 20.2 °C 9.7 °C 1008.7 hPa SW 9.7 km/h 12.9 km/h 51% 0 mm 0.0 W/m2
03:43 20.2 °C 9.7 °C 1009 hPa Calm   8 km/h 51% 0 mm 0.0 W/m2
03:49 20.3 °C 9.8 °C 1009 hPa Calm     51% 0 mm 0.0 W/m2
03:54 20.2 °C 9.7 °C 1009 hPa Calm     51% 0 mm 0.0 W/m2
04:09 20.1 °C 9.9 °C 1009 hPa SW 11.1 km/h 12.9 km/h 52% 0 mm 0.0 W/m2
04:29 20.2 °C 9.7 °C 1009 hPa SW 17.7 km/h 19.3 km/h 51% 0 mm 0.0 W/m2
04:40 20 °C 9.8 °C 1009 hPa SW 16.3 km/h 17.7 km/h 52% 0 mm 0.0 W/m2
04:55 19.7 °C 10.1 °C 1009.4 hPa SW 9.7 km/h 12.9 km/h 54% 0 mm 0.0 W/m2
05:10 19.5 °C 9.9 °C 1009.4 hPa SW 14.3 km/h 17.7 km/h 54% 0 mm 0.0 W/m2
05:15 19.4 °C 9.9 °C 1009.4 hPa SW 20.9 km/h 22.5 km/h 54% 0 mm 0.0 W/m2
05:20 19.4 °C 9.9 °C 1009.4 hPa SW 14.3 km/h 19.3 km/h 54% 0 mm 0.0 W/m2
05:25 19.3 °C 10 °C 1009.7 hPa SW 16.3 km/h 17.7 km/h 55% 0 mm 0.0 W/m2
05:35 19.3 °C 10 °C 1010 hPa Calm   8 km/h 55% 0 mm 0.0 W/m2
05:40 19.3 °C 10 °C 1010.4 hPa Calm     55% 0 mm 0.0 W/m2
05:46 19.3 °C 10 °C 1010.4 hPa Calm     55% 0 mm 0.0 W/m2
05:51 19.3 °C 10 °C 1010.4 hPa SW 6.4 km/h 9.7 km/h 55% 0 mm 0.0 W/m2
05:56 19.3 °C 10 °C 1010.4 hPa SW 7.9 km/h 12.9 km/h 55% 0 mm 0.0 W/m2
06:01 19.4 °C 9.9 °C 1010.4 hPa SW 13 km/h 14.5 km/h 54% 0 mm 0.0 W/m2
06:11 19.5 °C 9.9 °C 1010.4 hPa SW 9.7 km/h 9.7 km/h 54% 0 mm 7.0 W/m2
06:16 19.6 °C 10 °C 1010.4 hPa SW 9.7 km/h 11.3 km/h 54% 0 mm 14.0 W/m2
06:21 19.6 °C 9.8 °C 1010.4 hPa SW 7.9 km/h 11.3 km/h 53% 0 mm 25.0 W/m2
06:36 19.7 °C 10.1 °C 1010.7 hPa SW 9.7 km/h 12.9 km/h 54% 0 mm 54.0 W/m2
06:51 20 °C 10.1 °C 1011.1 hPa SW 13 km/h 16.1 km/h 53% 0 mm 98.0 W/m2
07:01 20.3 °C 10.1 °C 1011.1 hPa SW 11.1 km/h 12.9 km/h 52% 0 mm 137.0 W/m2
07:12 20.6 °C 10.1 °C 1011.4 hPa SW 7.9 km/h 11.3 km/h 51% 0 mm 176.0 W/m2
07:29 21.1 °C 9.7 °C 1011.4 hPa SW 13 km/h 16.1 km/h 48% 0 mm 237.0 W/m2
07:57 21.8 °C 9.3 °C 1011.4 hPa SW 14.3 km/h 19.3 km/h 45% 0 mm 325.0 W/m2
08:12 22.4 °C 9.2 °C 1011.7 hPa SSW 20.9 km/h 22.5 km/h 43% 0 mm 378.0 W/m2
08:36 22.9 °C 8.9 °C 1011.4 hPa SSW 17.7 km/h 24.1 km/h 41% 0 mm 461.0 W/m2
08:48 23.3 °C 8.9 °C 1011.4 hPa SW 19.5 km/h 20.9 km/h 40% 0 mm 497.0 W/m2
09:02 24.5 °C 8.4 °C 1011.4 hPa SSW 14.3 km/h 22.5 km/h 36% 0 mm 550.0 W/m2
09:33 25.2 °C 8.2 °C 1011.7 hPa SSW 19.5 km/h 24.1 km/h 34% 0 mm 649.0 W/m2
09:47 25.3 °C 7.9 °C 1011.7 hPa SW 17.7 km/h 20.9 km/h 33% 0 mm 468.0 W/m2
10:00 25.4 °C 7.5 °C 1011.7 hPa SSW 17.7 km/h 17.7 km/h 32% 0 mm 596.0 W/m2
10:11 25.9 °C 7.9 °C 1011.7 hPa SW 9.7 km/h 17.7 km/h 32% 0 mm 332.0 W/m2
10:20 26.2 °C 7.7 °C 1011.7 hPa SW 14.3 km/h 19.3 km/h 31% 0 mm 919.0 W/m2
10:30 27 °C 7.4 °C 1011.4 hPa SW 13 km/h 20.9 km/h 29% 0 mm 698.0 W/m2
10:36 27.1 °C 7.5 °C 1011.4 hPa SW 17.7 km/h 20.9 km/h 29% 0 mm 942.0 W/m2
10:47 27.1 °C 7 °C 1011.1 hPa SW 16.3 km/h 24.1 km/h 28% 0 mm 798.0 W/m2
10:57 27.7 °C 7 °C 1011.4 hPa SW 20.9 km/h 25.7 km/h 27% 0 mm 385.0 W/m2
11:08 27.9 °C 6.6 °C 1011.4 hPa SSW 16.3 km/h 20.9 km/h 26% 0 mm 612.0 W/m2
11:55 29.9 °C 5.2 °C 1010.7 hPa South 13 km/h 22.5 km/h 21% 0 mm 977.0 W/m2
12:10 30.1 °C 5.4 °C 1010.7 hPa SSW 13 km/h 27.4 km/h 21% 0 mm 752.0 W/m2
12:24 30.4 °C 4.2 °C 1010.7 hPa SSW 14.3 km/h 25.7 km/h 19% 0 mm 1048.0 W/m2
12:40 30.7 °C 3.7 °C 1010.4 hPa SW 20.9 km/h 20.9 km/h 18% 0 mm 998.0 W/m2
12:55 31.2 °C 1.5 °C 1010 hPa SSE 9.7 km/h 24.1 km/h 15% 0 mm 997.0 W/m2
13:08 31.6 °C -0.2 °C 1010 hPa South 11.1 km/h 17.7 km/h 13% 0 mm 1000.0 W/m2
13:20 31.7 °C 0.9 °C 1010 hPa SSW 20.9 km/h 20.9 km/h 14% 0 mm 997.0 W/m2
13:45 32.3 °C 2.4 °C 1009.7 hPa SSW 24.1 km/h 27.4 km/h 15% 0 mm 984.0 W/m2
14:01 32.8 °C 0.8 °C 1009.7 hPa SSW 14.3 km/h 22.5 km/h 13% 0 mm 976.0 W/m2
14:16 33.1 °C -0.1 °C 1009.4 hPa SSW 11.1 km/h 20.9 km/h 12% 0 mm 956.0 W/m2
14:31 34 °C -0.6 °C 1009 hPa SSW 19.5 km/h 19.5 km/h 11% 0 mm 937.0 W/m2
15:17 33.7 °C -0.8 °C 1008.7 hPa SSW 17.7 km/h 27.4 km/h 11% 0 mm 851.0 W/m2
15:30 33.7 °C 0.4 °C 1008.7 hPa SSW 32 km/h 33.8 km/h 12% 0 mm 816.0 W/m2
15:47 33.8 °C 0.4 °C 1008.4 hPa SSW 28.8 km/h 35.4 km/h 12% 0 mm 766.0 W/m2
15:56 33.7 °C -0.8 °C 1008.4 hPa South 25.9 km/h 29 km/h 11% 0 mm 738.0 W/m2
16:11 33.8 °C -3.5 °C 1008.4 hPa South 22.7 km/h 29 km/h 9% 0 mm 698.0 W/m2
16:16 33.7 °C -3.6 °C 1008.4 hPa South 24.1 km/h 30.6 km/h 9% 0 mm 680.0 W/m2
16:42 33.6 °C -2.2 °C 1008 hPa SSE 27.4 km/h 37 km/h 10% 0 mm 601.0 W/m2
16:58 33.2 °C -1.2 °C 1008 hPa SSE 28.8 km/h 33.8 km/h 11% 0 mm 552.0 W/m2
17:13 33.2 °C -2.5 °C 1008 hPa South 24.1 km/h 32.2 km/h 10% 0 mm 501.0 W/m2
17:19 33.1 °C -2.6 °C 1007.7 hPa South 20.9 km/h 27.4 km/h 10% 0 mm 483.0 W/m2
17:29 32.9 °C -1.5 °C 1007.7 hPa South 24.1 km/h 33.8 km/h 11% 0 mm 448.0 W/m2
19:06 31.6 °C 3.6 °C 1008.4 hPa South 19.5 km/h 29 km/h 17% 0 mm 30.0 W/m2
19:15 31.4 °C 4.2 °C 1008.4 hPa SSW 13 km/h 25.7 km/h 18% 0 mm 19.0 W/m2
19:26 31 °C 3.9 °C 1008.4 hPa South 25.9 km/h 27.4 km/h 18% 0 mm 16.0 W/m2
19:38 30.7 °C 3.7 °C 1008.4 hPa South 27.4 km/h 32.2 km/h 18% 0 mm 12.0 W/m2
20:06 29.9 °C 3.8 °C 1009 hPa SSW 16.3 km/h 20.9 km/h 19% 0 mm 0.0 W/m2
20:18 29.3 °C 6 °C 1009 hPa SSW 16.3 km/h 25.7 km/h 23% 0 mm 0.0 W/m2
20:34 28.7 °C 7.3 °C 1009 hPa South 19.5 km/h 22.5 km/h 26% 0 mm 0.0 W/m2
20:48 28.1 °C 7.9 °C 1009.4 hPa SSW 24.1 km/h 25.7 km/h 28% 0 mm 0.0 W/m2
21:02 27.7 °C 8 °C 1009.4 hPa SSW 14.3 km/h 19.3 km/h 29% 0 mm 0.0 W/m2
21:10 27.5 °C 8.4 °C 1009.7 hPa South 19.5 km/h 20.9 km/h 30% 0 mm 0.0 W/m2
21:19 27.3 °C 8.7 °C 1009.7 hPa SSW 16.3 km/h 22.5 km/h 31% 0 mm 0.0 W/m2
21:29 27 °C 8.9 °C 1010 hPa SSW 16.3 km/h 24.1 km/h 32% 0 mm 0.0 W/m2
21:34 26.9 °C 8.8 °C 1010 hPa SSW 16.3 km/h 20.9 km/h 32% 0 mm 0.0 W/m2
21:40 26.7 °C 8.6 °C 1010 hPa South 22.7 km/h 24.1 km/h 32% 0 mm 0.0 W/m2
21:47 26.6 °C 9 °C 1010 hPa South 22.7 km/h 27.4 km/h 33% 0 mm 0.0 W/m2
21:58 26.3 °C 8.7 °C 1010 hPa SW 28.8 km/h 29 km/h 33% 0 mm 0.0 W/m2
22:16 25.7 °C 7.8 °C 1010.4 hPa South 20.9 km/h 29 km/h 32% 0 mm 0.0 W/m2
22:24 25.2 °C 7.3 °C 1010.4 hPa South 20.9 km/h 30.6 km/h 32% 0 mm 0.0 W/m2
22:29 25 °C 7.2 °C 1010.4 hPa South 22.7 km/h 29 km/h 32% 0 mm 0.0 W/m2
22:34 24.9 °C 7.1 °C 1010.7 hPa South 14.3 km/h 24.1 km/h 32% 0 mm 0.0 W/m2
22:44 24.6 °C 6.8 °C 1010.7 hPa South 17.7 km/h 22.5 km/h 32% 0 mm 0.0 W/m2
22:49 24.5 °C 7.2 °C 1010.7 hPa SSW 17.7 km/h 20.9 km/h 33% 0 mm 0.0 W/m2
22:54 24.3 °C 7 °C 1010.7 hPa SSW 14.3 km/h 19.3 km/h 33% 0 mm 0.0 W/m2
23:04 24.1 °C 7.3 °C 1010.7 hPa SSW 25.9 km/h 25.9 km/h 34% 0 mm 0.0 W/m2
23:09 24 °C 7.2 °C 1010.7 hPa South 17.7 km/h 20.9 km/h 34% 0 mm 0.0 W/m2
23:14 23.8 °C 7.4 °C 1010.7 hPa South 16.3 km/h 24.1 km/h 35% 0 mm 0.0 W/m2
23:19 23.7 °C 7.7 °C 1010.7 hPa South 16.3 km/h 22.5 km/h 36% 0 mm 0.0 W/m2
23:24 23.6 °C 8.1 °C 1010.7 hPa South 16.3 km/h 19.3 km/h 37% 0 mm 0.0 W/m2
23:30 23.5 °C 8.4 °C 1010.4 hPa South 20.9 km/h 29 km/h 38% 0 mm 0.0 W/m2
23:39 23.3 °C 8.2 °C 1010.4 hPa South 19.5 km/h 25.7 km/h 38% 0 mm 0.0 W/m2
23:49 23.1 °C 8.4 °C 1010.4 hPa SSW 20.9 km/h 24.1 km/h 39% 0 mm 0.0 W/m2
23:54 23 °C 8.3 °C 1010.4 hPa SSW 22.7 km/h 25.7 km/h 39% 0 mm 0.0 W/m2
23:59 22.9 °C 8.2 °C 1010.4 hPa South 19.5 km/h 25.7 km/h 39% 0 mm 0.0 W/m2
Canyon Roadhouse, Fishriver Canyon, Namibia
Compliments of Weather Underground - 2.25 mb